Kirklinton, United Kingdom

10:49 PM GMT on December 08, 2016 (GMT +0000)
Unnamed Road | | Change Station

Elev 239 ft 55.07 °N, 2.92 °W | Updated 7 minutes ago

Partly Cloudy
Partly Cloudy
47.5 °F
Feels Like 48 °F
N
1.2
Wind Variable Wind from SW
Gusts 5.0 mph

Today
High -- | Low -- °F
--% Chance of Precip.
Yesterday
High -- | Low -- °F
Precip. -- in
Pressure 30.15 in
Visibility 6.2 miles
Clouds Few 1300 ft
Windchill 48 °F
Dew Point 48 °F
Humidity 100%
Rainfall 0.05 in
Snow Depth Not available.
8:23 AM 3:44 PM
Waxing Gibbous, 67% visible
METAR EGNT 082220Z 21004KT 170V250 9999 FEW013 08/07 Q1021
Pressure 30.15 in
Visibility 6.2 miles
Clouds Few 1300 ft
Windchill 48 °F
Dew Point 48 °F
Humidity 100%
Rainfall 0.05 in
Snow Depth Not available.
8:23 AM 3:44 PM
Waxing Gibbous, 67% visible
METAR EGNT 082220Z 21004KT 170V250 9999 FEW013 08/07 Q1021

10-Day Weather Forecast

×

Almanac

Astronomy

Dec. 08, 2016 Rise Set
Actual Time
Civil Twilight
Nautical Twilight
Astronomical Twilight
Moon
Length of Visible Light
Length of Day
Tomorrow will be .
, % of the Moon is Illuminated

Today's Extremes

Country Highs Country Lows

Community

WunderPhotos

Upload Photos

1,956,277 photos uploaded!

WunderBlog® & News

Nearby

Air Quality

  Air Quality AQ Index Pollutant
Not available.

Snow Depth

Station Depth Elevation

Earthquake Activity

City Distance Mag. Time & Date
Minimum magnitude displayed is 2.5.

Coastal Water Temperatures

Place Temperature

Stations

Nearby Weather Stations

Station Location Temp. Windchill Dew Point Humidity Wind Precip. Elev Updated Type